sensor_id;sensor_type;location;lat;lon;timestamp;P1;durP1;ratioP1;P2;durP2;ratioP2
9801;SDS011;4940;50.900;4.672;2023-11-19T00:01:57;72.38;;;65.72;;
9801;SDS011;4940;50.900;4.672;2023-11-19T00:04:26;67.63;;;61.28;;
9801;SDS011;4940;50.900;4.672;2023-11-19T00:06:53;63.67;;;57.53;;
9801;SDS011;4940;50.900;4.672;2023-11-19T00:09:27;61.65;;;55.67;;
9801;SDS011;4940;50.900;4.672;2023-11-19T00:11:54;61.60;;;55.95;;
9801;SDS011;4940;50.900;4.672;2023-11-19T00:14:23;57.65;;;51.95;;
9801;SDS011;4940;50.900;4.672;2023-11-19T00:16:50;51.35;;;46.28;;
9801;SDS011;4940;50.900;4.672;2023-11-19T00:19:19;54.95;;;49.42;;
9801;SDS011;4940;50.900;4.672;2023-11-19T00:21:47;57.80;;;51.97;;
9801;SDS011;4940;50.900;4.672;2023-11-19T00:24:15;58.08;;;52.60;;
9801;SDS011;4940;50.900;4.672;2023-11-19T00:26:43;62.20;;;56.60;;
9801;SDS011;4940;50.900;4.672;2023-11-19T00:29:10;57.55;;;52.25;;
9801;SDS011;4940;50.900;4.672;2023-11-19T00:31:39;60.55;;;54.80;;
9801;SDS011;4940;50.900;4.672;2023-11-19T00:34:06;61.80;;;55.78;;
9801;SDS011;4940;50.900;4.672;2023-11-19T00:36:34;60.65;;;54.67;;
9801;SDS011;4940;50.900;4.672;2023-11-19T00:39:02;60.72;;;54.97;;
9801;SDS011;4940;50.900;4.672;2023-11-19T00:41:31;56.08;;;50.58;;
9801;SDS011;4940;50.900;4.672;2023-11-19T00:43:58;59.85;;;53.95;;
9801;SDS011;4940;50.900;4.672;2023-11-19T00:46:26;63.80;;;57.60;;
9801;SDS011;4940;50.900;4.672;2023-11-19T00:48:53;64.57;;;58.33;;
9801;SDS011;4940;50.900;4.672;2023-11-19T00:51:21;68.85;;;62.50;;
9801;SDS011;4940;50.900;4.672;2023-11-19T00:53:48;67.53;;;61.03;;
9801;SDS011;4940;50.900;4.672;2023-11-19T00:56:17;69.05;;;62.47;;
9801;SDS011;4940;50.900;4.672;2023-11-19T00:58:44;72.43;;;65.82;;
9801;SDS011;4940;50.900;4.672;2023-11-19T01:01:13;73.57;;;66.68;;
9801;SDS011;4940;50.900;4.672;2023-11-19T01:03:40;70.15;;;63.33;;
9801;SDS011;4940;50.900;4.672;2023-11-19T01:06:08;66.97;;;59.95;;
9801;SDS011;4940;50.900;4.672;2023-11-19T01:08:35;66.50;;;60.47;;
9801;SDS011;4940;50.900;4.672;2023-11-19T01:11:03;64.53;;;58.15;;
9801;SDS011;4940;50.900;4.672;2023-11-19T01:13:32;62.70;;;56.90;;
9801;SDS011;4940;50.900;4.672;2023-11-19T01:15:59;80.75;;;72.90;;
9801;SDS011;4940;50.900;4.672;2023-11-19T01:18:27;76.53;;;69.63;;
9801;SDS011;4940;50.900;4.672;2023-11-19T01:20:55;69.10;;;62.22;;
9801;SDS011;4940;50.900;4.672;2023-11-19T01:23:22;68.72;;;62.08;;
9801;SDS011;4940;50.900;4.672;2023-11-19T01:25:50;62.38;;;55.08;;
9801;SDS011;4940;50.900;4.672;2023-11-19T01:28:17;69.30;;;62.22;;
9801;SDS011;4940;50.900;4.672;2023-11-19T01:30:46;70.97;;;64.32;;
9801;SDS011;4940;50.900;4.672;2023-11-19T01:33:13;78.32;;;70.15;;
9801;SDS011;4940;50.900;4.672;2023-11-19T01:35:41;72.68;;;65.80;;
9801;SDS011;4940;50.900;4.672;2023-11-19T01:38:08;78.80;;;71.80;;
9801;SDS011;4940;50.900;4.672;2023-11-19T01:40:36;78.28;;;71.25;;
9801;SDS011;4940;50.900;4.672;2023-11-19T01:43:03;81.25;;;73.95;;
9801;SDS011;4940;50.900;4.672;2023-11-19T01:45:31;75.43;;;68.85;;
9801;SDS011;4940;50.900;4.672;2023-11-19T01:48:02;81.45;;;73.90;;
9801;SDS011;4940;50.900;4.672;2023-11-19T01:50:30;80.05;;;73.10;;
9801;SDS011;4940;50.900;4.672;2023-11-19T01:52:59;72.45;;;65.80;;
9801;SDS011;4940;50.900;4.672;2023-11-19T01:55:27;67.40;;;61.17;;
9801;SDS011;4940;50.900;4.672;2023-11-19T01:57:55;61.38;;;55.63;;
9801;SDS011;4940;50.900;4.672;2023-11-19T02:00:26;66.10;;;59.17;;
9801;SDS011;4940;50.900;4.672;2023-11-19T02:02:53;64.15;;;57.85;;
9801;SDS011;4940;50.900;4.672;2023-11-19T02:05:22;68.43;;;62.40;;
9801;SDS011;4940;50.900;4.672;2023-11-19T02:07:49;70.90;;;64.15;;
9801;SDS011;4940;50.900;4.672;2023-11-19T02:10:18;72.40;;;65.95;;
9801;SDS011;4940;50.900;4.672;2023-11-19T02:12:45;75.60;;;69.30;;
9801;SDS011;4940;50.900;4.672;2023-11-19T02:15:13;71.38;;;65.00;;
9801;SDS011;4940;50.900;4.672;2023-11-19T02:17:40;74.00;;;67.03;;
9801;SDS011;4940;50.900;4.672;2023-11-19T02:20:08;69.38;;;63.20;;
9801;SDS011;4940;50.900;4.672;2023-11-19T02:22:38;73.32;;;66.07;;
9801;SDS011;4940;50.900;4.672;2023-11-19T02:25:07;69.65;;;62.47;;
9801;SDS011;4940;50.900;4.672;2023-11-19T02:27:43;70.00;;;63.38;;
9801;SDS011;4940;50.900;4.672;2023-11-19T02:30:13;79.05;;;71.85;;
9801;SDS011;4940;50.900;4.672;2023-11-19T02:32:41;77.53;;;69.88;;
9801;SDS011;4940;50.900;4.672;2023-11-19T02:35:08;81.57;;;74.07;;
9801;SDS011;4940;50.900;4.672;2023-11-19T02:37:36;78.82;;;70.85;;
9801;SDS011;4940;50.900;4.672;2023-11-19T02:40:05;77.40;;;70.38;;
9801;SDS011;4940;50.900;4.672;2023-11-19T02:42:34;83.57;;;75.97;;
9801;SDS011;4940;50.900;4.672;2023-11-19T02:45:03;84.18;;;76.28;;
9801;SDS011;4940;50.900;4.672;2023-11-19T02:47:32;81.55;;;74.15;;
9801;SDS011;4940;50.900;4.672;2023-11-19T02:50:01;81.78;;;73.90;;
9801;SDS011;4940;50.900;4.672;2023-11-19T02:52:29;83.57;;;75.95;;
9801;SDS011;4940;50.900;4.672;2023-11-19T02:55:00;79.68;;;71.68;;
9801;SDS011;4940;50.900;4.672;2023-11-19T02:57:30;80.20;;;72.90;;
9801;SDS011;4940;50.900;4.672;2023-11-19T02:59:59;82.53;;;74.60;;
9801;SDS011;4940;50.900;4.672;2023-11-19T03:02:27;78.22;;;71.25;;
9801;SDS011;4940;50.900;4.672;2023-11-19T03:04:59;70.78;;;63.63;;
9801;SDS011;4940;50.900;4.672;2023-11-19T03:07:26;70.85;;;63.83;;
9801;SDS011;4940;50.900;4.672;2023-11-19T03:09:54;71.22;;;64.53;;
9801;SDS011;4940;50.900;4.672;2023-11-19T03:12:21;71.05;;;63.45;;
9801;SDS011;4940;50.900;4.672;2023-11-19T03:14:49;79.30;;;71.38;;
9801;SDS011;4940;50.900;4.672;2023-11-19T03:17:16;69.93;;;62.38;;
9801;SDS011;4940;50.900;4.672;2023-11-19T03:19:45;68.45;;;61.45;;
9801;SDS011;4940;50.900;4.672;2023-11-19T03:22:13;68.32;;;61.63;;
9801;SDS011;4940;50.900;4.672;2023-11-19T03:24:41;66.82;;;60.17;;
9801;SDS011;4940;50.900;4.672;2023-11-19T03:27:08;64.72;;;58.17;;
9801;SDS011;4940;50.900;4.672;2023-11-19T03:29:36;60.58;;;54.42;;
9801;SDS011;4940;50.900;4.672;2023-11-19T03:32:05;72.80;;;65.57;;
9801;SDS011;4940;50.900;4.672;2023-11-19T03:34:32;70.88;;;63.70;;
9801;SDS011;4940;50.900;4.672;2023-11-19T03:37:01;73.55;;;66.63;;
9801;SDS011;4940;50.900;4.672;2023-11-19T03:39:29;72.25;;;65.30;;
9801;SDS011;4940;50.900;4.672;2023-11-19T03:41:56;67.75;;;60.90;;
9801;SDS011;4940;50.900;4.672;2023-11-19T03:44:23;68.38;;;61.08;;
9801;SDS011;4940;50.900;4.672;2023-11-19T03:46:51;61.13;;;55.10;;
9801;SDS011;4940;50.900;4.672;2023-11-19T03:49:19;60.58;;;54.53;;
9801;SDS011;4940;50.900;4.672;2023-11-19T03:51:46;60.58;;;54.10;;
9801;SDS011;4940;50.900;4.672;2023-11-19T03:54:15;70.05;;;63.33;;
9801;SDS011;4940;50.900;4.672;2023-11-19T03:56:42;69.45;;;62.38;;
9801;SDS011;4940;50.900;4.672;2023-11-19T03:59:09;70.82;;;63.85;;
9801;SDS011;4940;50.900;4.672;2023-11-19T04:01:37;70.13;;;63.15;;
9801;SDS011;4940;50.900;4.672;2023-11-19T04:04:05;72.45;;;65.20;;
9801;SDS011;4940;50.900;4.672;2023-11-19T04:06:32;72.63;;;65.50;;
9801;SDS011;4940;50.900;4.672;2023-11-19T04:09:00;68.28;;;61.35;;
9801;SDS011;4940;50.900;4.672;2023-11-19T04:11:29;64.88;;;58.45;;
9801;SDS011;4940;50.900;4.672;2023-11-19T04:13:58;71.20;;;55.58;;
9801;SDS011;4940;50.900;4.672;2023-11-19T04:16:25;70.40;;;62.67;;
9801;SDS011;4940;50.900;4.672;2023-11-19T04:18:54;68.40;;;61.75;;
9801;SDS011;4940;50.900;4.672;2023-11-19T04:21:21;71.13;;;61.05;;
9801;SDS011;4940;50.900;4.672;2023-11-19T04:23:49;67.82;;;61.22;;
9801;SDS011;4940;50.900;4.672;2023-11-19T04:26:16;67.05;;;60.08;;
9801;SDS011;4940;50.900;4.672;2023-11-19T04:28:45;64.43;;;57.40;;
9801;SDS011;4940;50.900;4.672;2023-11-19T04:31:14;67.20;;;55.30;;
9801;SDS011;4940;50.900;4.672;2023-11-19T04:33:42;64.30;;;57.70;;
9801;SDS011;4940;50.900;4.672;2023-11-19T04:36:09;65.03;;;58.20;;
9801;SDS011;4940;50.900;4.672;2023-11-19T04:38:39;54.30;;;46.97;;
9801;SDS011;4940;50.900;4.672;2023-11-19T04:41:06;56.38;;;50.72;;
9801;SDS011;4940;50.900;4.672;2023-11-19T04:43:35;55.30;;;49.63;;
9801;SDS011;4940;50.900;4.672;2023-11-19T04:46:05;54.47;;;48.63;;
9801;SDS011;4940;50.900;4.672;2023-11-19T04:48:32;58.33;;;52.08;;
9801;SDS011;4940;50.900;4.672;2023-11-19T04:51:00;56.30;;;50.33;;
9801;SDS011;4940;50.900;4.672;2023-11-19T04:53:27;62.38;;;56.08;;
9801;SDS011;4940;50.900;4.672;2023-11-19T04:55:55;60.17;;;52.10;;
9801;SDS011;4940;50.900;4.672;2023-11-19T04:58:22;60.42;;;54.22;;
9801;SDS011;4940;50.900;4.672;2023-11-19T05:00:50;61.60;;;55.58;;
9801;SDS011;4940;50.900;4.672;2023-11-19T05:03:19;58.50;;;53.28;;
9801;SDS011;4940;50.900;4.672;2023-11-19T05:05:48;64.00;;;57.83;;
9801;SDS011;4940;50.900;4.672;2023-11-19T05:08:15;60.65;;;54.33;;
9801;SDS011;4940;50.900;4.672;2023-11-19T05:10:43;61.08;;;51.47;;
9801;SDS011;4940;50.900;4.672;2023-11-19T05:13:10;59.20;;;53.28;;
9801;SDS011;4940;50.900;4.672;2023-11-19T05:15:38;53.42;;;48.03;;
9801;SDS011;4940;50.900;4.672;2023-11-19T05:18:05;56.00;;;50.22;;
9801;SDS011;4940;50.900;4.672;2023-11-19T05:20:35;59.00;;;52.97;;
9801;SDS011;4940;50.900;4.672;2023-11-19T05:23:02;62.05;;;55.83;;
9801;SDS011;4940;50.900;4.672;2023-11-19T05:25:30;61.05;;;54.92;;
9801;SDS011;4940;50.900;4.672;2023-11-19T05:27:57;59.55;;;50.85;;
9801;SDS011;4940;50.900;4.672;2023-11-19T05:30:25;62.00;;;53.00;;
9801;SDS011;4940;50.900;4.672;2023-11-19T05:32:52;58.75;;;52.38;;
9801;SDS011;4940;50.900;4.672;2023-11-19T05:35:20;58.08;;;52.38;;
9801;SDS011;4940;50.900;4.672;2023-11-19T05:37:48;60.17;;;52.05;;
9801;SDS011;4940;50.900;4.672;2023-11-19T05:40:16;67.70;;;57.70;;
9801;SDS011;4940;50.900;4.672;2023-11-19T05:42:44;60.08;;;52.75;;
9801;SDS011;4940;50.900;4.672;2023-11-19T05:45:11;61.53;;;52.45;;
9801;SDS011;4940;50.900;4.672;2023-11-19T05:47:39;54.92;;;49.28;;
9801;SDS011;4940;50.900;4.672;2023-11-19T05:50:07;54.03;;;48.15;;
9801;SDS011;4940;50.900;4.672;2023-11-19T05:52:35;54.60;;;48.70;;
9801;SDS011;4940;50.900;4.672;2023-11-19T05:55:04;66.28;;;52.03;;
9801;SDS011;4940;50.900;4.672;2023-11-19T05:57:34;61.53;;;52.28;;
9801;SDS011;4940;50.900;4.672;2023-11-19T06:00:02;51.97;;;46.38;;
9801;SDS011;4940;50.900;4.672;2023-11-19T06:02:33;46.35;;;40.50;;
9801;SDS011;4940;50.900;4.672;2023-11-19T06:05:02;52.60;;;44.97;;
9801;SDS011;4940;50.900;4.672;2023-11-19T06:07:30;49.30;;;39.50;;
9801;SDS011;4940;50.900;4.672;2023-11-19T06:09:58;50.20;;;43.17;;
9801;SDS011;4940;50.900;4.672;2023-11-19T06:12:27;45.65;;;39.22;;
9801;SDS011;4940;50.900;4.672;2023-11-19T06:14:54;54.53;;;39.45;;
9801;SDS011;4940;50.900;4.672;2023-11-19T06:17:22;52.65;;;39.20;;
9801;SDS011;4940;50.900;4.672;2023-11-19T06:19:49;52.20;;;43.13;;
9801;SDS011;4940;50.900;4.672;2023-11-19T06:22:17;48.10;;;40.50;;
9801;SDS011;4940;50.900;4.672;2023-11-19T06:24:44;48.10;;;39.95;;
9801;SDS011;4940;50.900;4.672;2023-11-19T06:27:13;51.35;;;43.00;;
9801;SDS011;4940;50.900;4.672;2023-11-19T06:29:41;50.88;;;39.40;;
9801;SDS011;4940;50.900;4.672;2023-11-19T06:32:09;49.13;;;40.33;;
9801;SDS011;4940;50.900;4.672;2023-11-19T06:34:37;55.88;;;40.40;;
9801;SDS011;4940;50.900;4.672;2023-11-19T06:37:04;50.15;;;39.88;;
9801;SDS011;4940;50.900;4.672;2023-11-19T06:39:34;45.30;;;40.08;;
9801;SDS011;4940;50.900;4.672;2023-11-19T06:42:02;45.95;;;39.80;;
9801;SDS011;4940;50.900;4.672;2023-11-19T06:44:30;43.25;;;38.78;;
9801;SDS011;4940;50.900;4.672;2023-11-19T06:46:58;46.88;;;41.10;;
9801;SDS011;4940;50.900;4.672;2023-11-19T06:49:26;51.63;;;44.92;;
9801;SDS011;4940;50.900;4.672;2023-11-19T06:51:53;48.85;;;43.75;;
9801;SDS011;4940;50.900;4.672;2023-11-19T06:54:22;46.25;;;41.50;;
9801;SDS011;4940;50.900;4.672;2023-11-19T06:56:49;46.55;;;41.58;;
9801;SDS011;4940;50.900;4.672;2023-11-19T06:59:17;48.30;;;42.50;;
9801;SDS011;4940;50.900;4.672;2023-11-19T07:01:46;46.17;;;41.17;;
9801;SDS011;4940;50.900;4.672;2023-11-19T07:04:15;51.40;;;39.85;;
9801;SDS011;4940;50.900;4.672;2023-11-19T07:06:42;47.58;;;38.65;;
9801;SDS011;4940;50.900;4.672;2023-11-19T07:09:10;45.00;;;40.28;;
9801;SDS011;4940;50.900;4.672;2023-11-19T07:11:39;48.22;;;38.80;;
9801;SDS011;4940;50.900;4.672;2023-11-19T07:14:07;41.88;;;37.50;;
9801;SDS011;4940;50.900;4.672;2023-11-19T07:16:34;43.08;;;36.53;;
9801;SDS011;4940;50.900;4.672;2023-11-19T07:19:03;48.22;;;39.75;;
9801;SDS011;4940;50.900;4.672;2023-11-19T07:21:32;48.67;;;36.58;;
9801;SDS011;4940;50.900;4.672;2023-11-19T07:24:00;49.45;;;38.67;;
9801;SDS011;4940;50.900;4.672;2023-11-19T07:26:29;52.22;;;39.63;;
9801;SDS011;4940;50.900;4.672;2023-11-19T07:28:57;49.03;;;37.38;;
9801;SDS011;4940;50.900;4.672;2023-11-19T07:31:26;56.42;;;39.33;;
9801;SDS011;4940;50.900;4.672;2023-11-19T07:33:54;59.42;;;39.40;;
9801;SDS011;4940;50.900;4.672;2023-11-19T07:36:21;50.17;;;39.28;;
9801;SDS011;4940;50.900;4.672;2023-11-19T07:38:50;51.97;;;39.45;;
9801;SDS011;4940;50.900;4.672;2023-11-19T07:41:18;54.00;;;38.35;;
9801;SDS011;4940;50.900;4.672;2023-11-19T07:43:45;48.67;;;38.35;;
9801;SDS011;4940;50.900;4.672;2023-11-19T07:46:13;45.15;;;38.13;;
9801;SDS011;4940;50.900;4.672;2023-11-19T07:48:40;48.47;;;37.10;;
9801;SDS011;4940;50.900;4.672;2023-11-19T07:51:08;52.15;;;38.90;;
9801;SDS011;4940;50.900;4.672;2023-11-19T07:53:35;43.97;;;37.40;;
9801;SDS011;4940;50.900;4.672;2023-11-19T07:56:05;54.40;;;38.00;;
9801;SDS011;4940;50.900;4.672;2023-11-19T07:58:33;42.67;;;37.88;;
9801;SDS011;4940;50.900;4.672;2023-11-19T08:01:01;46.92;;;37.53;;
9801;SDS011;4940;50.900;4.672;2023-11-19T08:03:29;50.55;;;38.30;;
9801;SDS011;4940;50.900;4.672;2023-11-19T08:05:57;52.88;;;38.50;;
9801;SDS011;4940;50.900;4.672;2023-11-19T08:08:24;46.97;;;37.42;;
9801;SDS011;4940;50.900;4.672;2023-11-19T08:10:52;45.55;;;36.88;;
9801;SDS011;4940;50.900;4.672;2023-11-19T08:13:23;48.05;;;35.63;;
9801;SDS011;4940;50.900;4.672;2023-11-19T08:15:50;49.53;;;34.65;;
9801;SDS011;4940;50.900;4.672;2023-11-19T08:18:18;46.28;;;35.25;;
9801;SDS011;4940;50.900;4.672;2023-11-19T08:20:45;43.83;;;37.35;;
9801;SDS011;4940;50.900;4.672;2023-11-19T08:23:18;47.85;;;35.95;;
9801;SDS011;4940;50.900;4.672;2023-11-19T08:25:45;49.65;;;36.28;;
9801;SDS011;4940;50.900;4.672;2023-11-19T08:28:13;43.97;;;36.08;;
9801;SDS011;4940;50.900;4.672;2023-11-19T08:30:42;39.20;;;35.05;;
9801;SDS011;4940;50.900;4.672;2023-11-19T08:33:09;38.65;;;33.20;;
9801;SDS011;4940;50.900;4.672;2023-11-19T08:35:37;43.35;;;33.20;;
9801;SDS011;4940;50.900;4.672;2023-11-19T08:38:05;47.05;;;33.40;;
9801;SDS011;4940;50.900;4.672;2023-11-19T08:40:32;40.15;;;32.63;;
9801;SDS011;4940;50.900;4.672;2023-11-19T08:42:59;37.03;;;31.35;;
9801;SDS011;4940;50.900;4.672;2023-11-19T08:45:27;42.78;;;30.27;;
9801;SDS011;4940;50.900;4.672;2023-11-19T08:47:55;33.42;;;29.15;;
9801;SDS011;4940;50.900;4.672;2023-11-19T08:50:23;31.58;;;28.17;;
9801;SDS011;4940;50.900;4.672;2023-11-19T08:52:50;37.42;;;28.73;;
9801;SDS011;4940;50.900;4.672;2023-11-19T08:55:18;31.25;;;27.08;;
9801;SDS011;4940;50.900;4.672;2023-11-19T08:57:45;32.80;;;27.58;;
9801;SDS011;4940;50.900;4.672;2023-11-19T09:00:13;31.98;;;26.83;;
9801;SDS011;4940;50.900;4.672;2023-11-19T09:02:40;28.60;;;25.98;;
9801;SDS011;4940;50.900;4.672;2023-11-19T09:05:09;28.60;;;25.60;;
9801;SDS011;4940;50.900;4.672;2023-11-19T09:07:38;29.50;;;26.70;;
9801;SDS011;4940;50.900;4.672;2023-11-19T09:10:05;29.15;;;26.60;;
9801;SDS011;4940;50.900;4.672;2023-11-19T09:12:34;30.65;;;27.42;;
9801;SDS011;4940;50.900;4.672;2023-11-19T09:15:01;32.17;;;28.90;;
9801;SDS011;4940;50.900;4.672;2023-11-19T09:17:29;32.60;;;28.58;;
9801;SDS011;4940;50.900;4.672;2023-11-19T09:19:56;33.83;;;29.00;;
9801;SDS011;4940;50.900;4.672;2023-11-19T09:22:25;35.08;;;31.20;;
9801;SDS011;4940;50.900;4.672;2023-11-19T09:24:52;33.10;;;29.65;;
9801;SDS011;4940;50.900;4.672;2023-11-19T09:27:19;34.33;;;30.63;;
9801;SDS011;4940;50.900;4.672;2023-11-19T09:29:47;35.17;;;31.33;;
9801;SDS011;4940;50.900;4.672;2023-11-19T09:32:16;33.63;;;29.42;;
9801;SDS011;4940;50.900;4.672;2023-11-19T09:34:44;34.60;;;30.42;;
9801;SDS011;4940;50.900;4.672;2023-11-19T09:37:12;32.22;;;28.83;;
9801;SDS011;4940;50.900;4.672;2023-11-19T09:39:40;35.58;;;29.67;;
9801;SDS011;4940;50.900;4.672;2023-11-19T09:42:08;30.95;;;27.35;;
9801;SDS011;4940;50.900;4.672;2023-11-19T09:44:36;30.73;;;27.30;;
9801;SDS011;4940;50.900;4.672;2023-11-19T09:47:05;30.42;;;27.33;;
9801;SDS011;4940;50.900;4.672;2023-11-19T09:49:32;30.27;;;27.15;;
9801;SDS011;4940;50.900;4.672;2023-11-19T09:52:00;29.60;;;27.00;;
9801;SDS011;4940;50.900;4.672;2023-11-19T09:54:28;29.73;;;27.08;;
9801;SDS011;4940;50.900;4.672;2023-11-19T09:56:57;30.83;;;27.63;;
9801;SDS011;4940;50.900;4.672;2023-11-19T09:59:28;30.17;;;27.48;;
9801;SDS011;4940;50.900;4.672;2023-11-19T10:01:55;29.98;;;27.15;;
9801;SDS011;4940;50.900;4.672;2023-11-19T10:04:23;31.38;;;28.50;;
9801;SDS011;4940;50.900;4.672;2023-11-19T10:06:52;28.50;;;26.02;;
9801;SDS011;4940;50.900;4.672;2023-11-19T10:09:19;30.25;;;27.52;;
9801;SDS011;4940;50.900;4.672;2023-11-19T10:11:47;28.98;;;26.33;;
9801;SDS011;4940;50.900;4.672;2023-11-19T10:14:16;28.35;;;25.65;;
9801;SDS011;4940;50.900;4.672;2023-11-19T10:16:46;28.33;;;26.08;;
9801;SDS011;4940;50.900;4.672;2023-11-19T10:19:18;27.45;;;24.90;;
9801;SDS011;4940;50.900;4.672;2023-11-19T10:21:47;26.38;;;23.75;;
9801;SDS011;4940;50.900;4.672;2023-11-19T10:24:15;27.52;;;25.13;;
9801;SDS011;4940;50.900;4.672;2023-11-19T10:26:42;26.70;;;24.40;;
9801;SDS011;4940;50.900;4.672;2023-11-19T10:29:10;30.42;;;27.15;;
9801;SDS011;4940;50.900;4.672;2023-11-19T10:31:41;28.10;;;25.35;;
9801;SDS011;4940;50.900;4.672;2023-11-19T10:34:24;28.92;;;25.88;;
9801;SDS011;4940;50.900;4.672;2023-11-19T10:36:52;27.23;;;24.90;;
9801;SDS011;4940;50.900;4.672;2023-11-19T10:39:19;26.35;;;23.98;;
9801;SDS011;4940;50.900;4.672;2023-11-19T10:41:49;27.30;;;25.08;;
9801;SDS011;4940;50.900;4.672;2023-11-19T10:44:31;25.92;;;23.45;;
9801;SDS011;4940;50.900;4.672;2023-11-19T10:47:02;24.77;;;22.17;;
9801;SDS011;4940;50.900;4.672;2023-11-19T10:49:34;25.08;;;23.10;;
9801;SDS011;4940;50.900;4.672;2023-11-19T10:52:04;24.05;;;21.35;;
9801;SDS011;4940;50.900;4.672;2023-11-19T10:54:35;22.40;;;20.15;;
9801;SDS011;4940;50.900;4.672;2023-11-19T10:57:02;21.25;;;19.10;;
9801;SDS011;4940;50.900;4.672;2023-11-19T10:59:32;22.13;;;20.13;;
9801;SDS011;4940;50.900;4.672;2023-11-19T11:01:59;23.02;;;21.02;;
9801;SDS011;4940;50.900;4.672;2023-11-19T11:04:31;23.63;;;22.02;;
9801;SDS011;4940;50.900;4.672;2023-11-19T11:07:02;26.52;;;24.42;;
9801;SDS011;4940;50.900;4.672;2023-11-19T11:09:30;27.65;;;25.38;;
9801;SDS011;4940;50.900;4.672;2023-11-19T11:11:59;29.58;;;27.08;;
9801;SDS011;4940;50.900;4.672;2023-11-19T11:14:28;29.92;;;27.25;;
9801;SDS011;4940;50.900;4.672;2023-11-19T11:16:56;29.65;;;26.73;;
9801;SDS011;4940;50.900;4.672;2023-11-19T11:19:24;28.08;;;25.75;;
9801;SDS011;4940;50.900;4.672;2023-11-19T11:21:53;30.83;;;28.05;;
9801;SDS011;4940;50.900;4.672;2023-11-19T11:24:32;24.58;;;22.40;;
9801;SDS011;4940;50.900;4.672;2023-11-19T11:30:19;24.05;;;21.85;;
9801;SDS011;4940;50.900;4.672;2023-11-19T11:33:02;23.05;;;20.30;;
9801;SDS011;4940;50.900;4.672;2023-11-19T11:35:46;25.13;;;22.75;;
9801;SDS011;4940;50.900;4.672;2023-11-19T11:38:21;24.90;;;22.52;;
9801;SDS011;4940;50.900;4.672;2023-11-19T11:43:48;25.98;;;23.77;;
9801;SDS011;4940;50.900;4.672;2023-11-19T11:49:27;27.08;;;24.80;;
9801;SDS011;4940;50.900;4.672;2023-11-19T11:52:01;29.80;;;26.95;;
9801;SDS011;4940;50.900;4.672;2023-11-19T11:54:29;29.02;;;26.50;;
9801;SDS011;4940;50.900;4.672;2023-11-19T11:57:05;30.67;;;27.92;;
9801;SDS011;4940;50.900;4.672;2023-11-19T11:59:42;30.00;;;27.73;;
9801;SDS011;4940;50.900;4.672;2023-11-19T12:02:14;30.55;;;27.67;;
9801;SDS011;4940;50.900;4.672;2023-11-19T12:04:42;30.38;;;27.52;;
9801;SDS011;4940;50.900;4.672;2023-11-19T12:07:15;30.35;;;27.70;;
9801;SDS011;4940;50.900;4.672;2023-11-19T12:09:46;30.55;;;28.02;;
9801;SDS011;4940;50.900;4.672;2023-11-19T12:12:18;29.95;;;27.45;;
9801;SDS011;4940;50.900;4.672;2023-11-19T12:15:06;28.98;;;26.35;;
9801;SDS011;4940;50.900;4.672;2023-11-19T12:17:36;26.17;;;23.98;;
9801;SDS011;4940;50.900;4.672;2023-11-19T12:20:15;27.38;;;24.70;;
9801;SDS011;4940;50.900;4.672;2023-11-19T12:22:45;23.48;;;21.67;;
9801;SDS011;4940;50.900;4.672;2023-11-19T12:25:14;21.17;;;19.40;;
9801;SDS011;4940;50.900;4.672;2023-11-19T12:27:43;15.70;;;13.70;;
9801;SDS011;4940;50.900;4.672;2023-11-19T12:30:12;13.85;;;12.25;;
9801;SDS011;4940;50.900;4.672;2023-11-19T12:32:44;11.75;;;10.20;;
9801;SDS011;4940;50.900;4.672;2023-11-19T12:35:12;17.58;;;11.80;;
9801;SDS011;4940;50.900;4.672;2023-11-19T12:37:40;13.05;;;11.95;;
9801;SDS011;4940;50.900;4.672;2023-11-19T12:40:16;16.35;;;14.85;;
9801;SDS011;4940;50.900;4.672;2023-11-19T12:42:45;19.50;;;17.92;;
9801;SDS011;4940;50.900;4.672;2023-11-19T12:45:12;21.58;;;19.73;;
9801;SDS011;4940;50.900;4.672;2023-11-19T12:47:41;21.67;;;19.83;;
9801;SDS011;4940;50.900;4.672;2023-11-19T12:50:09;21.38;;;19.33;;
9801;SDS011;4940;50.900;4.672;2023-11-19T12:52:37;20.98;;;18.95;;
9801;SDS011;4940;50.900;4.672;2023-11-19T12:55:05;26.40;;;21.73;;
9801;SDS011;4940;50.900;4.672;2023-11-19T12:57:54;21.08;;;19.17;;
9801;SDS011;4940;50.900;4.672;2023-11-19T13:00:23;22.17;;;20.58;;
9801;SDS011;4940;50.900;4.672;2023-11-19T13:02:52;24.27;;;22.00;;
9801;SDS011;4940;50.900;4.672;2023-11-19T13:05:20;24.20;;;22.00;;
9801;SDS011;4940;50.900;4.672;2023-11-19T13:07:49;23.92;;;21.55;;
9801;SDS011;4940;50.900;4.672;2023-11-19T13:10:16;24.67;;;22.45;;
9801;SDS011;4940;50.900;4.672;2023-11-19T13:13:00;26.27;;;23.95;;
9801;SDS011;4940;50.900;4.672;2023-11-19T13:15:29;24.50;;;22.55;;
9801;SDS011;4940;50.900;4.672;2023-11-19T13:17:56;26.42;;;23.90;;
9801;SDS011;4940;50.900;4.672;2023-11-19T13:20:24;28.52;;;26.25;;
9801;SDS011;4940;50.900;4.672;2023-11-19T13:22:57;31.83;;;28.42;;
9801;SDS011;4940;50.900;4.672;2023-11-19T13:25:25;31.25;;;28.48;;
9801;SDS011;4940;50.900;4.672;2023-11-19T13:27:53;27.10;;;24.92;;
9801;SDS011;4940;50.900;4.672;2023-11-19T13:30:22;26.48;;;24.40;;
9801;SDS011;4940;50.900;4.672;2023-11-19T13:32:50;22.25;;;20.48;;
9801;SDS011;4940;50.900;4.672;2023-11-19T13:35:18;22.17;;;20.17;;
9801;SDS011;4940;50.900;4.672;2023-11-19T13:37:45;21.33;;;19.70;;
9801;SDS011;4940;50.900;4.672;2023-11-19T13:40:13;22.52;;;20.27;;
9801;SDS011;4940;50.900;4.672;2023-11-19T13:42:40;21.98;;;20.50;;
9801;SDS011;4940;50.900;4.672;2023-11-19T13:45:08;23.48;;;21.65;;
9801;SDS011;4940;50.900;4.672;2023-11-19T13:47:39;23.42;;;21.42;;
9801;SDS011;4940;50.900;4.672;2023-11-19T13:50:08;25.20;;;23.02;;
9801;SDS011;4940;50.900;4.672;2023-11-19T13:52:36;24.90;;;22.52;;
9801;SDS011;4940;50.900;4.672;2023-11-19T13:55:05;25.40;;;22.95;;
9801;SDS011;4940;50.900;4.672;2023-11-19T13:57:33;25.33;;;23.05;;
9801;SDS011;4940;50.900;4.672;2023-11-19T14:00:01;26.15;;;23.60;;
9801;SDS011;4940;50.900;4.672;2023-11-19T14:02:32;26.90;;;24.33;;
9801;SDS011;4940;50.900;4.672;2023-11-19T14:05:00;29.90;;;24.75;;
9801;SDS011;4940;50.900;4.672;2023-11-19T14:07:28;29.02;;;26.13;;
9801;SDS011;4940;50.900;4.672;2023-11-19T14:09:55;27.60;;;25.20;;
9801;SDS011;4940;50.900;4.672;2023-11-19T14:12:23;27.92;;;25.63;;
9801;SDS011;4940;50.900;4.672;2023-11-19T14:14:50;30.02;;;26.88;;
9801;SDS011;4940;50.900;4.672;2023-11-19T14:17:18;30.20;;;27.35;;
9801;SDS011;4940;50.900;4.672;2023-11-19T14:19:45;30.80;;;27.48;;
9801;SDS011;4940;50.900;4.672;2023-11-19T14:22:14;32.10;;;28.83;;
9801;SDS011;4940;50.900;4.672;2023-11-19T14:24:41;31.67;;;28.58;;
9801;SDS011;4940;50.900;4.672;2023-11-19T14:27:09;31.77;;;28.70;;
9801;SDS011;4940;50.900;4.672;2023-11-19T14:29:36;31.60;;;28.67;;
9801;SDS011;4940;50.900;4.672;2023-11-19T14:32:05;32.20;;;28.95;;
9801;SDS011;4940;50.900;4.672;2023-11-19T14:34:32;30.95;;;28.30;;
9801;SDS011;4940;50.900;4.672;2023-11-19T14:37:00;32.20;;;29.25;;
9801;SDS011;4940;50.900;4.672;2023-11-19T14:39:29;31.77;;;28.88;;
9801;SDS011;4940;50.900;4.672;2023-11-19T14:41:56;32.10;;;28.92;;
9801;SDS011;4940;50.900;4.672;2023-11-19T14:44:26;33.10;;;29.60;;
9801;SDS011;4940;50.900;4.672;2023-11-19T14:46:54;33.35;;;29.75;;
9801;SDS011;4940;50.900;4.672;2023-11-19T14:49:22;35.08;;;31.48;;
9801;SDS011;4940;50.900;4.672;2023-11-19T14:51:50;35.47;;;30.40;;
9801;SDS011;4940;50.900;4.672;2023-11-19T14:54:18;34.20;;;30.50;;
9801;SDS011;4940;50.900;4.672;2023-11-19T14:56:46;35.50;;;31.52;;
9801;SDS011;4940;50.900;4.672;2023-11-19T14:59:14;38.25;;;32.67;;
9801;SDS011;4940;50.900;4.672;2023-11-19T15:01:41;36.88;;;31.67;;
9801;SDS011;4940;50.900;4.672;2023-11-19T15:04:08;37.13;;;31.92;;
9801;SDS011;4940;50.900;4.672;2023-11-19T15:06:36;34.67;;;31.13;;